createdAt,value
2023-03-12T00:01:30.304Z,97705.75
2023-03-12T00:03:33.576Z,97700.69
2023-03-12T00:05:38.211Z,97705.00
2023-03-12T00:07:42.778Z,97707.47
2023-03-12T00:09:45.853Z,97703.19
2023-03-12T00:11:48.915Z,97708.50
2023-03-12T00:13:52.636Z,97701.00
2023-03-12T00:15:55.822Z,97707.88
2023-03-12T00:17:58.942Z,97704.56
2023-03-12T00:20:02.026Z,97703.69
2023-03-12T00:22:05.246Z,97708.94
2023-03-12T00:24:09.953Z,97709.75
2023-03-12T00:26:14.376Z,97718.38
2023-03-12T00:28:17.419Z,97710.69
2023-03-12T00:30:20.856Z,97713.13
2023-03-12T00:32:24.498Z,97710.63
2023-03-12T00:34:27.597Z,97714.00
2023-03-12T00:36:32.320Z,97719.03
2023-03-12T00:38:35.570Z,97719.19
2023-03-12T00:40:40.345Z,97720.25
2023-03-12T00:42:43.389Z,97711.97
2023-03-12T00:44:46.502Z,97701.09
2023-03-12T00:46:49.594Z,97697.03
2023-03-12T00:48:52.726Z,97702.22
2023-03-12T00:50:55.844Z,97709.97
2023-03-12T00:52:58.851Z,97709.16
2023-03-12T00:55:01.913Z,97704.97
2023-03-12T00:57:07.296Z,97702.44
2023-03-12T00:59:11.917Z,97705.94
2023-03-12T01:01:15.072Z,97698.28
2023-03-12T01:03:18.207Z,97697.38
2023-03-12T01:05:21.501Z,97693.09
2023-03-12T01:07:24.579Z,97687.16
2023-03-12T01:09:27.668Z,97684.66
2023-03-12T01:11:30.962Z,97688.91
2023-03-12T01:13:35.401Z,97694.88
2023-03-12T01:15:38.486Z,97689.72
2023-03-12T01:17:41.590Z,97690.66
2023-03-12T01:19:44.731Z,97699.94
2023-03-12T01:21:48.005Z,97694.69
2023-03-12T01:23:51.389Z,97704.97
2023-03-12T01:25:55.578Z,97703.44
2023-03-12T01:27:58.666Z,97701.75
2023-03-12T01:30:07.230Z,97695.91
2023-03-12T01:32:10.470Z,97702.78
2023-03-12T01:34:13.631Z,97701.19
2023-03-12T01:36:18.709Z,97711.47
2023-03-12T01:38:21.833Z,97713.19
2023-03-12T01:40:29.038Z,97713.19
2023-03-12T01:42:33.024Z,97710.59
2023-03-12T01:44:51.029Z,97714.09
2023-03-12T01:46:55.612Z,97713.34
2023-03-12T01:49:04.875Z,97704.81
2023-03-12T01:51:09.797Z,97711.63
2023-03-12T01:53:13.062Z,97711.53
2023-03-12T01:55:17.455Z,97713.22
2023-03-12T01:57:24.646Z,97708.91
2023-03-12T01:59:31.177Z,97711.53
2023-03-12T02:01:34.479Z,97711.47
2023-03-12T02:03:39.762Z,97709.72
2023-03-12T02:05:49.100Z,97713.88
2023-03-12T02:07:52.693Z,97717.16
2023-03-12T02:09:56.333Z,97716.19
2023-03-12T02:12:00.052Z,97724.63
2023-03-12T02:14:03.865Z,97712.59
2023-03-12T02:16:08.083Z,97708.34
2023-03-12T02:18:15.138Z,97706.72
2023-03-12T02:20:23.734Z,97711.84
2023-03-12T02:22:27.343Z,97711.78
2023-03-12T02:24:35.209Z,97704.13
2023-03-12T02:26:40.423Z,97707.59
2023-03-12T02:28:45.955Z,97711.84
2023-03-12T02:30:51.964Z,97708.34
2023-03-12T02:32:56.271Z,97710.84
2023-03-12T02:35:01.261Z,97715.78
2023-03-12T02:37:04.942Z,97709.69
2023-03-12T02:39:08.712Z,97715.59
2023-03-12T02:41:15.543Z,97712.16
2023-03-12T02:43:22.347Z,97717.28
2023-03-12T02:45:26.498Z,97709.63
2023-03-12T02:47:30.529Z,97713.03
2023-03-12T02:49:35.543Z,97707.19
2023-03-12T02:51:39.363Z,97705.56
2023-03-12T02:53:43.212Z,97704.72
2023-03-12T02:55:47.035Z,97702.28
2023-03-12T02:57:50.622Z,97700.56
2023-03-12T02:59:55.412Z,97700.56
2023-03-12T03:02:01.083Z,97695.44
2023-03-12T03:04:06.391Z,97692.78
2023-03-12T03:06:10.025Z,97694.47
2023-03-12T03:08:13.648Z,97703.78
2023-03-12T03:10:17.642Z,97704.44
2023-03-12T03:12:22.803Z,97706.19
2023-03-12T03:14:26.342Z,97700.06
2023-03-12T03:16:31.717Z,97701.00
2023-03-12T03:18:35.813Z,97697.50
2023-03-12T03:20:39.384Z,97696.50
2023-03-12T03:22:43.471Z,97684.56
2023-03-12T03:24:47.032Z,97687.97
2023-03-12T03:26:50.466Z,97683.66
2023-03-12T03:28:54.655Z,97683.59
2023-03-12T03:31:01.432Z,97684.38
2023-03-12T03:33:09.962Z,97688.69
2023-03-12T03:35:13.399Z,97684.44
2023-03-12T03:37:16.876Z,97679.34
2023-03-12T03:39:21.233Z,97682.66
2023-03-12T03:41:26.120Z,97685.94
2023-03-12T03:43:30.653Z,97686.06
2023-03-12T03:45:33.808Z,97684.44
2023-03-12T03:47:37.782Z,97685.16
2023-03-12T03:49:42.854Z,97683.44
2023-03-12T03:51:49.969Z,97685.13
2023-03-12T03:53:58.562Z,97683.44
2023-03-12T03:56:07.239Z,97692.81
2023-03-12T03:58:12.637Z,97683.50
2023-03-12T04:00:18.082Z,97685.22
2023-03-12T04:02:24.014Z,97685.16
2023-03-12T04:04:27.257Z,97682.66
2023-03-12T04:06:32.244Z,97692.13
2023-03-12T04:08:37.252Z,97690.50
2023-03-12T04:10:43.063Z,97682.84
2023-03-12T04:12:46.145Z,97682.78
2023-03-12T04:14:49.269Z,97683.53
2023-03-12T04:16:52.380Z,97674.91
2023-03-12T04:18:55.397Z,97683.50
2023-03-12T04:20:59.597Z,97677.53
2023-03-12T04:23:04.527Z,97676.56
2023-03-12T04:25:08.404Z,97677.28
2023-03-12T04:27:11.529Z,97667.84
2023-03-12T04:29:15.292Z,97674.53
2023-03-12T04:31:18.567Z,97675.25
2023-03-12T04:33:26.270Z,97675.13
2023-03-12T04:35:29.421Z,97672.50
2023-03-12T04:37:33.450Z,97673.31
2023-03-12T04:39:38.928Z,97673.31
2023-03-12T04:41:42.148Z,97677.50
2023-03-12T04:43:49.556Z,97684.19
2023-03-12T04:45:54.047Z,97684.25
2023-03-12T04:47:57.196Z,97696.06
2023-03-12T04:50:00.334Z,97690.06
2023-03-12T04:52:03.598Z,97687.31
2023-03-12T04:54:06.850Z,97690.63
2023-03-12T04:56:12.277Z,97691.41
2023-03-12T04:58:15.781Z,97695.41
2023-03-12T05:00:20.230Z,97689.44
2023-03-12T05:02:23.246Z,97694.50
2023-03-12T05:04:26.345Z,97695.28
2023-03-12T05:06:30.276Z,97691.88
2023-03-12T05:08:33.505Z,97689.19
2023-03-12T05:10:36.916Z,97690.78
2023-03-12T05:12:41.832Z,97694.91
2023-03-12T05:14:44.990Z,97687.91
2023-03-12T05:16:48.252Z,97691.28
2023-03-12T05:18:51.551Z,97686.81
2023-03-12T05:21:01.996Z,97680.81
2023-03-12T05:23:05.179Z,97685.91
2023-03-12T05:25:08.856Z,97691.84
2023-03-12T05:27:12.209Z,97690.09
2023-03-12T05:29:17.224Z,97690.97
2023-03-12T05:31:21.457Z,97687.59
2023-03-12T05:33:25.662Z,97679.81
2023-03-12T05:35:28.690Z,97684.06
2023-03-12T05:37:31.817Z,97679.75
2023-03-12T05:39:35.960Z,97688.41
2023-03-12T05:41:41.359Z,97689.25
2023-03-12T05:43:51.145Z,97693.34
2023-03-12T05:45:59.966Z,97693.28
2023-03-12T05:48:03.246Z,97686.38
2023-03-12T05:50:07.236Z,97705.13
2023-03-12T05:52:12.307Z,97694.03
2023-03-12T05:54:15.610Z,97689.56
2023-03-12T05:56:19.600Z,97685.13
2023-03-12T05:58:22.850Z,97688.50
2023-03-12T06:00:26.778Z,97679.03
2023-03-12T06:02:33.798Z,97689.25
2023-03-12T06:04:37.019Z,97690.09
2023-03-12T06:06:40.096Z,97684.75
2023-03-12T06:08:44.231Z,97690.63
2023-03-12T06:10:48.584Z,97689.50
2023-03-12T06:12:51.788Z,97681.03
2023-03-12T06:14:54.858Z,97688.69
2023-03-12T06:16:58.071Z,97687.88
2023-03-12T06:19:04.063Z,97685.06
2023-03-12T06:21:12.801Z,97685.78
2023-03-12T06:23:16.470Z,97679.63
2023-03-12T06:25:19.799Z,97690.72
2023-03-12T06:27:23.122Z,97681.13
2023-03-12T06:29:26.252Z,97679.25
2023-03-12T06:31:29.599Z,97684.25
2023-03-12T06:33:33.018Z,97679.91
2023-03-12T06:35:37.478Z,97670.38
2023-03-12T06:37:40.635Z,97675.38
2023-03-12T06:39:43.691Z,97672.75
2023-03-12T06:41:46.810Z,97677.75
2023-03-12T06:43:50.104Z,97677.63
2023-03-12T06:45:53.172Z,97682.56
2023-03-12T06:47:56.344Z,97684.00
2023-03-12T06:49:59.504Z,97679.50
2023-03-12T06:52:04.192Z,97680.13
2023-03-12T06:54:07.342Z,97685.34
2023-03-12T06:56:10.960Z,97678.38
2023-03-12T06:58:14.368Z,97678.25
2023-03-12T07:00:17.853Z,97682.44
2023-03-12T07:02:21.136Z,97678.97
2023-03-12T07:04:24.297Z,97681.31
2023-03-12T07:06:27.564Z,97680.41
2023-03-12T07:08:32.064Z,97684.44
2023-03-12T07:10:35.135Z,97685.13
2023-03-12T07:12:38.321Z,97686.81
2023-03-12T07:14:41.355Z,97681.81
2023-03-12T07:16:44.570Z,97686.03
2023-03-12T07:18:47.660Z,97683.31
2023-03-12T07:20:50.739Z,97689.25
2023-03-12T07:22:53.952Z,97701.06
2023-03-12T07:24:58.544Z,97705.31
2023-03-12T07:27:01.635Z,97711.28
2023-03-12T07:29:05.635Z,97720.63
2023-03-12T07:31:08.790Z,97718.81
2023-03-12T07:33:13.605Z,97721.19
2023-03-12T07:35:17.002Z,97721.03
2023-03-12T07:37:20.072Z,97730.38
2023-03-12T07:39:23.317Z,97727.81
2023-03-12T07:41:27.819Z,97733.72
2023-03-12T07:43:30.928Z,97726.78
2023-03-12T07:45:34.042Z,97726.63
2023-03-12T07:47:37.238Z,97724.81
2023-03-12T07:49:41.882Z,97707.53
2023-03-12T07:51:45.459Z,97714.97
2023-03-12T07:53:49.050Z,97696.03
2023-03-12T07:55:52.539Z,97692.66
2023-03-12T07:57:59.072Z,97702.63
2023-03-12T08:00:02.393Z,97703.03
2023-03-12T08:02:15.115Z,97704.41
2023-03-12T08:04:18.297Z,97710.78
2023-03-12T08:06:21.820Z,97711.94
2023-03-12T08:08:25.041Z,97708.69
2023-03-12T08:10:28.278Z,97713.09
2023-03-12T08:12:31.566Z,97711.56
2023-03-12T08:14:36.428Z,97716.88
2023-03-12T08:16:39.603Z,97705.03
2023-03-12T08:18:43.697Z,97717.97
2023-03-12T08:20:47.210Z,97723.09
2023-03-12T08:22:50.658Z,97713.66
2023-03-12T08:24:53.840Z,97713.09
2023-03-12T08:26:57.175Z,97723.81
2023-03-12T08:29:01.206Z,97720.97
2023-03-12T08:31:06.039Z,97713.97
2023-03-12T08:33:09.244Z,97719.06
2023-03-12T08:35:12.390Z,97724.97
2023-03-12T08:37:16.143Z,97729.81
2023-03-12T08:39:19.195Z,97732.81
2023-03-12T08:41:22.495Z,97729.13
2023-03-12T08:43:27.853Z,97738.25
2023-03-12T08:45:32.431Z,97742.09
2023-03-12T08:47:37.493Z,97739.00
2023-03-12T08:49:41.936Z,97744.50
2023-03-12T08:51:45.291Z,97742.50
2023-03-12T08:53:48.671Z,97736.31
2023-03-12T08:55:54.111Z,97745.84
2023-03-12T08:57:57.522Z,97754.69
2023-03-12T09:00:00.614Z,97739.50
2023-03-12T09:02:03.718Z,97733.56
2023-03-12T09:04:08.962Z,97737.88
2023-03-12T09:06:16.766Z,97734.66
2023-03-12T09:08:19.884Z,97735.81
2023-03-12T09:10:23.091Z,97741.22
2023-03-12T09:12:26.474Z,97738.28
2023-03-12T09:16:52.750Z,97737.03
2023-03-12T09:18:56.185Z,97735.56
2023-03-12T09:21:00.847Z,97737.06
2023-03-12T09:23:05.164Z,97742.72
2023-03-12T09:25:11.123Z,97736.03
2023-03-12T09:27:14.381Z,97743.09
2023-03-12T09:29:17.855Z,97744.53
2023-03-12T09:31:21.087Z,97741.88
2023-03-12T09:33:24.384Z,97738.19
2023-03-12T09:35:27.662Z,97738.75
2023-03-12T09:37:32.661Z,97740.06
2023-03-12T09:39:36.242Z,97744.69
2023-03-12T09:41:41.344Z,97748.59
2023-03-12T09:43:49.172Z,97750.72
2023-03-12T09:45:52.941Z,97754.88
2023-03-12T09:47:58.374Z,97758.13
2023-03-12T09:50:05.587Z,97756.28
2023-03-12T09:52:17.909Z,97759.69
2023-03-12T09:54:27.168Z,97760.53
2023-03-12T09:56:30.955Z,97757.03
2023-03-12T09:58:35.863Z,97760.25
2023-03-12T10:00:38.894Z,97755.06
2023-03-12T10:03:08.796Z,97754.78
2023-03-12T10:05:17.446Z,97753.69
2023-03-12T10:07:24.367Z,97746.25
2023-03-12T10:09:37.642Z,97749.41
2023-03-12T10:11:48.466Z,97760.25
2023-03-12T10:14:01.674Z,97759.97
2023-03-12T10:16:13.568Z,97756.34
2023-03-12T10:18:26.343Z,97756.16
2023-03-12T10:20:46.721Z,97758.56
2023-03-12T10:22:55.174Z,97758.56
2023-03-12T10:25:02.678Z,97755.88
2023-03-12T10:27:11.216Z,97760.13
2023-03-12T10:29:17.972Z,97767.00
2023-03-12T10:31:24.722Z,97772.09
2023-03-12T10:33:38.960Z,97778.13
2023-03-12T10:35:42.218Z,97791.09
2023-03-12T10:37:48.306Z,97779.97
2023-03-12T10:39:52.967Z,97774.03
2023-03-12T10:41:58.001Z,97774.03
2023-03-12T10:44:05.048Z,97778.59
2023-03-12T10:46:29.842Z,97777.84
2023-03-12T10:48:33.167Z,97786.28
2023-03-12T10:50:37.979Z,97787.00
2023-03-12T10:52:41.116Z,97785.16
2023-03-12T10:54:45.554Z,97790.44
2023-03-12T10:56:50.647Z,97785.34
2023-03-12T10:58:55.223Z,97807.75
2023-03-12T11:00:59.941Z,97803.34
2023-03-12T11:03:06.227Z,97798.88
2023-03-12T11:05:21.411Z,97803.97
2023-03-12T11:07:27.687Z,97802.09
2023-03-12T11:09:31.123Z,97806.28
2023-03-12T11:11:38.571Z,97802.69
2023-03-12T11:13:42.957Z,97805.81
2023-03-12T11:15:47.841Z,97806.63
2023-03-12T11:17:51.122Z,97805.63
2023-03-12T11:19:54.435Z,97810.81
2023-03-12T11:22:00.123Z,97807.16
2023-03-12T11:24:09.958Z,97803.66
2023-03-12T11:26:18.008Z,97806.16
2023-03-12T11:28:25.704Z,97810.53
2023-03-12T11:30:33.643Z,97808.47
2023-03-12T11:32:40.683Z,97804.97
2023-03-12T11:34:47.665Z,97805.88
2023-03-12T11:36:56.326Z,97797.25
2023-03-12T11:39:04.784Z,97806.78
2023-03-12T11:41:27.720Z,97806.78
2023-03-12T11:43:44.397Z,97808.19
2023-03-12T11:45:56.072Z,97802.69
2023-03-12T11:48:13.338Z,97809.81
2023-03-12T11:50:29.652Z,97810.81
2023-03-12T11:52:41.739Z,97815.44
2023-03-12T11:54:52.617Z,97817.53
2023-03-12T11:56:57.717Z,97809.56
2023-03-12T11:59:11.487Z,97805.84
2023-03-12T12:01:21.319Z,97805.25
2023-03-12T12:03:45.674Z,97802.88
2023-03-12T12:05:56.717Z,97803.00
2023-03-12T12:08:19.002Z,97808.19
2023-03-12T12:10:27.612Z,97810.59
2023-03-12T12:12:49.887Z,97795.00
2023-03-12T12:15:02.864Z,97811.56
2023-03-12T12:17:16.835Z,97801.16
2023-03-12T12:19:29.232Z,97800.19
2023-03-12T12:21:46.124Z,97806.25
2023-03-12T12:23:54.733Z,97799.69
2023-03-12T12:26:05.974Z,97797.00
2023-03-12T12:28:31.464Z,97799.31
2023-03-12T12:30:45.469Z,97796.31
2023-03-12T12:33:00.771Z,97797.31
2023-03-12T12:35:19.506Z,97793.59
2023-03-12T12:37:26.614Z,97787.97
2023-03-12T12:39:33.784Z,97785.16
2023-03-12T12:41:39.086Z,97780.56
2023-03-12T12:43:43.674Z,97778.59
2023-03-12T12:45:48.160Z,97781.91
2023-03-12T12:47:56.224Z,97775.66
2023-03-12T12:49:59.777Z,97775.78
2023-03-12T12:52:06.694Z,97770.56
2023-03-12T12:54:16.662Z,97769.81
2023-03-12T12:56:24.418Z,97774.09
2023-03-12T12:58:40.038Z,97773.66
2023-03-12T13:00:47.683Z,97774.66
2023-03-12T13:02:51.742Z,97779.13
2023-03-12T13:04:56.389Z,97776.75
2023-03-12T13:07:03.002Z,97778.81
2023-03-12T13:09:17.484Z,97774.91
2023-03-12T13:11:40.809Z,97774.38
2023-03-12T13:13:44.831Z,97772.44
2023-03-12T13:15:49.058Z,97765.50
2023-03-12T13:18:08.899Z,97767.19
2023-03-12T13:20:17.529Z,97771.50
2023-03-12T13:22:28.418Z,97773.25
2023-03-12T13:24:34.695Z,97772.53
2023-03-12T13:26:50.619Z,97771.50
2023-03-12T13:29:21.825Z,97770.75
2023-03-12T13:31:38.971Z,97765.53
2023-03-12T13:33:45.334Z,97767.91
2023-03-12T13:36:23.703Z,97767.56
2023-03-12T13:38:36.497Z,97763.31
2023-03-12T13:41:03.050Z,97775.19
2023-03-12T13:43:12.607Z,97768.09
2023-03-12T13:45:31.079Z,97765.97
2023-03-12T13:47:39.020Z,97762.31
2023-03-12T13:49:44.744Z,97756.13
2023-03-12T13:52:00.859Z,97759.38
2023-03-12T13:54:04.267Z,97764.84
2023-03-12T13:56:11.686Z,97771.41
2023-03-12T13:58:17.011Z,97766.53
2023-03-12T14:00:22.080Z,97759.34
2023-03-12T14:02:28.424Z,97749.47
2023-03-12T14:04:36.022Z,97747.34
2023-03-12T14:06:53.578Z,97745.69
2023-03-12T14:09:12.915Z,97755.19
2023-03-12T14:11:25.704Z,97754.97
2023-03-12T14:13:41.179Z,97749.63
2023-03-12T14:15:49.297Z,97753.78
2023-03-12T14:17:57.942Z,97755.69
2023-03-12T14:20:02.937Z,97756.84
2023-03-12T14:22:08.332Z,97765.19
2023-03-12T14:24:24.823Z,97765.06
2023-03-12T14:26:33.159Z,97760.91
2023-03-12T14:28:40.807Z,97757.00
2023-03-12T14:30:50.364Z,97759.84
2023-03-12T14:32:56.511Z,97765.44
2023-03-12T14:35:09.937Z,97769.09
2023-03-12T14:37:16.722Z,97771.00
2023-03-12T14:39:26.569Z,97778.97
2023-03-12T14:41:32.654Z,97783.22
2023-03-12T14:43:36.385Z,97785.34
2023-03-12T14:45:41.332Z,97780.75
2023-03-12T14:47:46.410Z,97778.84
2023-03-12T14:49:49.523Z,97779.66
2023-03-12T14:51:52.951Z,97780.50
2023-03-12T14:53:57.007Z,97772.53
2023-03-12T14:56:06.387Z,97769.66
2023-03-12T14:58:17.115Z,97770.41
2023-03-12T15:00:25.126Z,97772.53
2023-03-12T15:02:29.781Z,97773.81
2023-03-12T15:04:35.138Z,97770.59
2023-03-12T15:06:41.034Z,97777.16
2023-03-12T15:08:44.470Z,97774.16
2023-03-12T15:10:49.570Z,97774.75
2023-03-12T15:12:55.857Z,97770.50
2023-03-12T15:15:03.732Z,97773.94
2023-03-12T15:17:07.754Z,97770.50
2023-03-12T15:19:13.428Z,97764.91
2023-03-12T15:21:16.921Z,97763.00
2023-03-12T15:23:20.507Z,97760.75
2023-03-12T15:25:25.058Z,97762.78
2023-03-12T15:27:33.467Z,97761.94
2023-03-12T15:29:42.020Z,97772.53
2023-03-12T15:31:47.800Z,97758.75
2023-03-12T15:34:02.170Z,97759.56
2023-03-12T15:36:07.670Z,97754.09
2023-03-12T15:38:17.880Z,97759.09
2023-03-12T15:40:22.762Z,97763.25
2023-03-12T15:42:27.400Z,97758.03
2023-03-12T15:44:35.101Z,97760.66
2023-03-12T15:46:38.283Z,97759.09
2023-03-12T15:48:48.652Z,97762.88
2023-03-12T15:50:51.772Z,97757.66
2023-03-12T15:53:03.137Z,97752.56
2023-03-12T15:55:20.520Z,97753.28
2023-03-12T15:57:25.220Z,97761.13
2023-03-12T15:59:29.178Z,97763.63
2023-03-12T16:01:45.518Z,97765.25
2023-03-12T16:03:50.003Z,97766.00
2023-03-12T16:05:53.075Z,97761.59
2023-03-12T16:07:56.214Z,97765.13
2023-03-12T16:09:59.288Z,97760.88
2023-03-12T16:12:02.586Z,97764.19
2023-03-12T16:14:07.411Z,97759.91
2023-03-12T16:16:11.384Z,97759.09
2023-03-12T16:18:15.778Z,97756.34
2023-03-12T16:20:21.285Z,97752.69
2023-03-12T16:22:24.383Z,97749.94
2023-03-12T16:24:27.623Z,97751.72
2023-03-12T16:26:30.765Z,97757.78
2023-03-12T16:28:35.400Z,97755.31
2023-03-12T16:30:38.476Z,97756.94
2023-03-12T16:32:41.657Z,97751.72
2023-03-12T16:34:45.398Z,97744.97
2023-03-12T16:36:49.991Z,97741.50
2023-03-12T16:38:53.052Z,97756.34
2023-03-12T16:40:56.153Z,97755.91
2023-03-12T16:43:02.587Z,97763.25
2023-03-12T16:45:06.676Z,97771.22
2023-03-12T16:47:11.795Z,97768.72
2023-03-12T16:49:15.825Z,97769.69
2023-03-12T16:51:18.923Z,97765.66
2023-03-12T16:53:23.901Z,97762.22
2023-03-12T16:55:29.017Z,97758.53
2023-03-12T16:57:34.926Z,97749.28
2023-03-12T16:59:38.580Z,97745.47
2023-03-12T17:01:41.664Z,97750.81
2023-03-12T17:03:48.892Z,97749.50
2023-03-12T17:05:52.108Z,97747.13
2023-03-12T17:07:56.721Z,97743.91
2023-03-12T17:10:01.169Z,97744.13
2023-03-12T17:12:05.543Z,97739.97
2023-03-12T17:14:17.078Z,97734.97
2023-03-12T17:16:20.475Z,97735.09
2023-03-12T17:18:25.501Z,97751.13
2023-03-12T17:20:28.581Z,97740.66
2023-03-12T17:22:31.786Z,97744.25
2023-03-12T17:24:34.992Z,97739.84
2023-03-12T17:26:40.366Z,97742.69
2023-03-12T17:28:43.527Z,97740.09
2023-03-12T17:30:47.379Z,97742.69
2023-03-12T17:32:51.149Z,97745.31
2023-03-12T17:34:56.745Z,97758.34
2023-03-12T17:37:00.116Z,97756.84
2023-03-12T17:39:03.180Z,97750.75
2023-03-12T17:41:23.426Z,97762.88
2023-03-12T17:43:30.309Z,97763.94
2023-03-12T17:45:33.975Z,97757.06
2023-03-12T17:47:37.360Z,97765.25
2023-03-12T17:49:41.241Z,97763.81
2023-03-12T17:51:45.435Z,97762.13
2023-03-12T17:53:48.858Z,97764.97
2023-03-12T17:55:52.053Z,97773.03
2023-03-12T17:57:55.273Z,97770.53
2023-03-12T17:59:59.795Z,97772.56
2023-03-12T18:02:02.974Z,97778.00
2023-03-12T18:04:06.165Z,97783.09
2023-03-12T18:06:09.343Z,97779.78
2023-03-12T18:08:12.981Z,97785.00
2023-03-12T18:10:16.077Z,97774.56
2023-03-12T18:12:19.220Z,97779.78
2023-03-12T18:14:22.438Z,97778.72
2023-03-12T18:16:26.982Z,97786.44
2023-03-12T18:18:30.292Z,97798.53
2023-03-12T18:20:39.326Z,97781.22
2023-03-12T18:22:45.292Z,97782.19
2023-03-12T18:24:48.280Z,97784.03
2023-03-12T18:26:52.268Z,97774.56
2023-03-12T18:28:55.830Z,97781.44
2023-03-12T18:30:58.979Z,97787.41
2023-03-12T18:33:03.617Z,97789.88
2023-03-12T18:35:07.750Z,97790.47
2023-03-12T18:37:10.878Z,97799.00
2023-03-12T18:39:13.968Z,97795.47
2023-03-12T18:41:17.087Z,97799.88
2023-03-12T18:43:21.841Z,97808.41
2023-03-12T18:45:25.169Z,97801.63
2023-03-12T18:47:28.374Z,97801.75
2023-03-12T18:49:32.840Z,97807.81
2023-03-12T18:51:36.677Z,97809.69
2023-03-12T18:53:39.745Z,97815.75
2023-03-12T18:55:42.970Z,97816.47
2023-03-12T18:57:47.249Z,97814.56
2023-03-12T18:59:50.706Z,97818.03
2023-03-12T19:01:54.170Z,97811.72
2023-03-12T19:03:57.317Z,97804.75
2023-03-12T19:06:06.039Z,97797.75
2023-03-12T19:08:09.156Z,97804.50
2023-03-12T19:10:13.708Z,97803.53
2023-03-12T19:12:16.786Z,97804.28
2023-03-12T19:14:19.853Z,97798.09
2023-03-12T19:16:23.384Z,97804.75
2023-03-12T19:18:26.572Z,97804.75
2023-03-12T19:20:30.857Z,97801.09
2023-03-12T19:22:35.313Z,97802.03
2023-03-12T19:24:38.495Z,97806.19
2023-03-12T19:26:41.674Z,97815.69
2023-03-12T19:28:45.224Z,97811.28
2023-03-12T19:30:48.456Z,97814.16
2023-03-12T19:32:51.569Z,97810.81
2023-03-12T19:34:54.699Z,97805.69
2023-03-12T19:36:57.802Z,97806.66
2023-03-12T19:39:04.373Z,97804.75
2023-03-12T19:41:10.253Z,97801.31
2023-03-12T19:43:13.406Z,97804.88
2023-03-12T19:45:16.751Z,97805.69
2023-03-12T19:47:21.871Z,97805.81
2023-03-12T19:49:25.330Z,97809.38
2023-03-12T19:51:28.492Z,97809.50
2023-03-12T19:53:31.636Z,97817.34
2023-03-12T19:55:36.120Z,97813.66
2023-03-12T19:57:39.848Z,97826.00
2023-03-12T19:59:43.210Z,97827.56
2023-03-12T20:01:46.298Z,97829.31
2023-03-12T20:03:49.458Z,97825.06
2023-03-12T20:05:52.536Z,97822.22
2023-03-12T20:07:55.741Z,97817.00
2023-03-12T20:09:59.388Z,97814.38
2023-03-12T20:12:03.936Z,97817.59
2023-03-12T20:14:07.045Z,97812.13
2023-03-12T20:16:12.607Z,97815.34
2023-03-12T20:18:15.927Z,97827.34
2023-03-12T20:20:19.427Z,97810.94
2023-03-12T20:22:22.674Z,97817.81
2023-03-12T20:24:25.714Z,97814.97
2023-03-12T20:26:28.951Z,97818.53
2023-03-12T20:28:35.440Z,97822.13
2023-03-12T20:30:40.545Z,97821.25
2023-03-12T20:32:43.932Z,97829.22
2023-03-12T20:34:47.160Z,97817.94
2023-03-12T20:36:50.317Z,97820.44
2023-03-12T20:38:53.676Z,97815.22
2023-03-12T20:40:56.814Z,97814.97
2023-03-12T20:43:02.511Z,97818.53
2023-03-12T20:45:08.314Z,97821.25
2023-03-12T20:47:11.662Z,97816.88
2023-03-12T20:49:14.843Z,97816.88
2023-03-12T20:51:18.405Z,97817.59
2023-03-12T20:53:21.498Z,97816.66
2023-03-12T20:55:24.559Z,97811.31
2023-03-12T20:57:27.746Z,97805.97
2023-03-12T20:59:31.106Z,97809.28
2023-03-12T21:01:35.713Z,97809.91
2023-03-12T21:03:38.841Z,97815.13
2023-03-12T21:05:42.697Z,97816.81
2023-03-12T21:07:45.757Z,97820.00
2023-03-12T21:09:48.864Z,97816.69
2023-03-12T21:11:51.924Z,97815.03
2023-03-12T21:13:55.103Z,97812.19
2023-03-12T21:15:58.259Z,97816.34
2023-03-12T21:18:02.687Z,97811.94
2023-03-12T21:20:09.686Z,97811.00
2023-03-12T21:22:13.123Z,97811.13
2023-03-12T21:24:16.239Z,97809.34
2023-03-12T21:26:19.384Z,97815.28
2023-03-12T21:28:22.440Z,97818.72
2023-03-12T21:30:25.573Z,97814.94
2023-03-12T21:32:29.119Z,97812.44
2023-03-12T21:34:33.619Z,97806.00
2023-03-12T21:36:36.840Z,97812.78
2023-03-12T21:38:42.653Z,97809.38
2023-03-12T21:40:45.777Z,97806.00
2023-03-12T21:42:48.968Z,97794.88
2023-03-12T21:44:52.111Z,97797.25
2023-03-12T21:46:55.287Z,97799.72
2023-03-12T21:48:58.738Z,97799.63
2023-03-12T21:51:07.594Z,97802.22
2023-03-12T21:53:22.653Z,97812.69
2023-03-12T21:55:26.878Z,97804.72
2023-03-12T21:57:30.465Z,97802.00
2023-03-12T21:59:33.930Z,97803.63
2023-03-12T22:01:37.086Z,97797.47
2023-03-12T22:03:41.237Z,97800.09
2023-03-12T22:05:44.361Z,97791.53
2023-03-12T22:07:48.739Z,97787.03
2023-03-12T22:09:51.899Z,97789.50
2023-03-12T22:11:55.088Z,97790.56
2023-03-12T22:13:58.149Z,97782.97
2023-03-12T22:16:02.260Z,97781.34
2023-03-12T22:18:05.448Z,97780.50
2023-03-12T22:20:10.266Z,97777.03
2023-03-12T22:22:14.135Z,97776.09
2023-03-12T22:24:18.546Z,97772.53
2023-03-12T22:26:22.317Z,97763.97
2023-03-12T22:28:25.966Z,97762.22
2023-03-12T22:30:29.306Z,97761.38
2023-03-12T22:32:32.598Z,97758.75
2023-03-12T22:34:35.750Z,97756.03
2023-03-12T22:36:39.714Z,97756.03
2023-03-12T22:38:43.298Z,97753.53
2023-03-12T22:40:47.843Z,97754.38
2023-03-12T22:42:50.999Z,97744.75
2023-03-12T22:44:54.013Z,97742.16
2023-03-12T22:46:57.198Z,97737.88
2023-03-12T22:49:01.555Z,97734.53
2023-03-12T22:51:05.251Z,97719.94
2023-03-12T22:53:08.320Z,97727.31
2023-03-12T22:55:11.809Z,97723.25
2023-03-12T22:57:16.297Z,97717.56
2023-03-12T22:59:19.390Z,97710.88
2023-03-12T23:01:24.094Z,97706.03
2023-03-12T23:03:27.444Z,97708.88
2023-03-12T23:05:30.608Z,97700.56
2023-03-12T23:07:33.892Z,97703.53
2023-03-12T23:09:37.050Z,97697.72
2023-03-12T23:11:41.149Z,97693.69
2023-03-12T23:13:46.702Z,97695.72
2023-03-12T23:15:49.895Z,97695.94
2023-03-12T23:17:52.967Z,97697.00
2023-03-12T23:19:56.060Z,97699.16
2023-03-12T23:21:59.168Z,97685.41
2023-03-12T23:24:02.268Z,97678.50
2023-03-12T23:26:05.674Z,97689.06
2023-03-12T23:28:08.791Z,97684.88
2023-03-12T23:30:15.063Z,97686.78
2023-03-12T23:32:18.179Z,97678.50
2023-03-12T23:34:21.244Z,97688.19
2023-03-12T23:36:25.214Z,97681.47
2023-03-12T23:38:28.451Z,97678.97
2023-03-12T23:40:31.534Z,97686.91
2023-03-12T23:42:34.540Z,97676.59
2023-03-12T23:44:38.930Z,97689.63
2023-03-12T23:46:45.087Z,97684.66
2023-03-12T23:48:48.296Z,97674.31
2023-03-12T23:50:51.461Z,97669.94
2023-03-12T23:52:55.285Z,97675.38
2023-03-12T23:54:58.394Z,97671.84
2023-03-12T23:57:01.502Z,97678.72
2023-03-12T23:59:05.354Z,97661.41
